Willits, CA

8:51 PM PDT on September 15, 2014 (GMT -0700)
POTTER VALLEY PH | Change Station
CLOSE
Current Station
Personal Weather Station
Location: Potter Valley, CA
Elevation: 1332 ft
Nearby Weather Stations

Elev 1332 ft 39.37 °N, 123.13 °W | Updated 1 hour ago

Clear
Clear
72.0 °F
Feels Like 77 °F
N
1.0
Wind Variable Wind from North

Today
High -- | Low -- °F
--% Chance of Precip.
Yesterday
High -- | Low -- °F
Precip. -- in
6:54 AM 7:21 PM
Waning Gibbous, 49% visible
Pressure 29.86 in
Visibility 10.0 miles
Clouds Clear
Heat Index 77 °F
Dew Point 50 °F
Humidity 45%
Rainfall -999.00 in
Snow Depth 1 in , 0 in , 0 in
UV 0 out of 12
Pollen 6.90 out of 12
Air Quality Not available.
Flu Activity Not available.
METAR KUKI 160256Z AUTO 02003KT 10SM CLR 21/09 A2987 RMK AO2 SLP111 T02110094 53011

More Conditions Fewer Conditions

Pressure 29.86 in
Visibility 10.0 miles
Clouds Clear
Heat Index 77 °F
Dew Point 50 °F
Humidity 45%
Rainfall -999.00 in
Snow Depth 1 in , 0 in , 0 in
UV 0 out of 12
Pollen 6.90 out of 12
Air Quality Not available.
Flu Activity Not available.
METAR KUKI 160256Z AUTO 02003KT 10SM CLR 21/09 A2987 RMK AO2 SLP111 T02110094 53011

More Conditions Fewer Conditions

10-Day Weather Forecast

Almanac

Astronomy

Sep. 15, 2014 Rise Set
Actual Time 6:54 AM PDT 7:21 PM PDT
Civil Twilight 6:27 AM PDT 7:48 PM PDT
Nautical Twilight 5:56 AM PDT 8:20 PM PDT
Astronomical Twilight 5:23 AM PDT 8:52 PM PDT
Moon No Moon Rise 1:57 PM PDT (9/15)
Length of Visible Light 13h 20m
Length of Day
12h 27m
Tomorrow will be 2m 33s shorter.
Waning Gibbous, 49% of the Moon is Illuminated
Today
Waning Gibbous
Sep 24
New
Oct 1
First Quarter
Oct 8
Full
Oct 15
Last Quarter

Today's Extremes

State Highs State Lows

Community

WunderPhotos

Upload Photos

1,753,693 photos uploaded!

Nearby

Snow Depth

Station Depth Elevation
CSS Lab 2 in 6900 ft
Leavitt Meadows 1 in 7200 ft
Spratt Creek 0 in 6200 ft
Monitor Pass 0 in 8350 ft
Echo Peak 0 in 7800 ft

Earthquake Activity

City Distance Mag. Time & Date
Covelo, California 26 miles 3.3 1:17 PM PDT
2014-09-14
Cobb, California 50 miles 2.7 11:07 AM PDT
2014-09-14
Minimum magnitude displayed is 2.5.

Coastal Water Temperatures

Place Temperature
Arena Cove, CA 61.0 °F
North Spit, CA 57.0 °F
Point Reyes, CA 64.9 °F
San Francisco, CA 64.0 °F
Richmond, CA 66.9 °F

Nearby Weather Stations